Sabina, Ohio
Current Conditions -  °F | °C
As of 3:54 AM on Saturday 25 Oct 2014 (Local Time) from KILN Reporting Station
Clear Clear  
Wind Chill: 42°   Ceiling: Unl
Heat Index: 45°   Visibility: 10mi
Dew Point: 39°   Wind: 6mph
Humidity: 80%   Direction: 210°SSW
Pressure: 30.01"   Gusts: NA
Location:  39.49°N, 83.64°W
Report Text: KILN 250754Z AUTO 21005KT 10SM CLR 07/04 A3001 RMK AO2 SLP168 T00720039
Loading
Personal Weather Stations






























Interactive Weather Map
Tropical Storm Tracking
New forecast layout! Learn more

10-Day Weather Forecast

Advertisements
Track Severe Weather on mobile